createdAt,value
2018-02-22T00:00:16.748Z,11.72
2018-02-22T00:02:45.295Z,11.67
2018-02-22T00:05:14.614Z,11.69
2018-02-22T00:07:43.231Z,11.28
2018-02-22T00:10:11.786Z,11.56
2018-02-22T00:12:40.329Z,11.68
2018-02-22T00:15:09.703Z,11.79
2018-02-22T00:17:38.253Z,11.77
2018-02-22T00:20:06.812Z,11.71
2018-02-22T00:22:35.505Z,11.46
2018-02-22T00:25:04.056Z,11.59
2018-02-22T00:27:32.612Z,11.41
2018-02-22T00:30:01.218Z,11.62
2018-02-22T00:32:30.548Z,11.80
2018-02-22T00:34:59.860Z,11.95
2018-02-22T00:37:28.680Z,11.78
2018-02-22T00:39:57.224Z,11.64
2018-02-22T00:42:25.780Z,11.51
2018-02-22T00:44:54.413Z,11.72
2018-02-22T00:47:23.320Z,11.45
2018-02-22T00:49:51.868Z,11.67
2018-02-22T00:52:20.697Z,11.40
2018-02-22T00:54:49.304Z,11.34
2018-02-22T00:57:17.861Z,11.23
2018-02-22T00:59:46.648Z,11.34
2018-02-22T01:02:15.965Z,11.59
2018-02-22T01:04:44.528Z,11.38
2018-02-22T01:07:13.316Z,11.16
2018-02-22T01:09:41.868Z,11.37
2018-02-22T01:12:10.416Z,11.25
2018-02-22T01:14:39.346Z,11.55
2018-02-22T01:17:07.901Z,11.76
2018-02-22T01:19:37.216Z,11.97
2018-02-22T01:22:05.910Z,11.99
2018-02-22T01:24:34.461Z,12.16
2018-02-22T01:27:03.784Z,11.90
2018-02-22T01:29:33.236Z,11.85
2018-02-22T01:32:02.555Z,11.85
2018-02-22T01:34:31.117Z,11.80
2018-02-22T01:37:00.004Z,11.76
2018-02-22T01:39:28.552Z,11.71
2018-02-22T01:41:57.105Z,11.72
2018-02-22T01:44:25.704Z,11.35
2018-02-22T01:46:55.021Z,11.52
2018-02-22T01:49:23.568Z,11.16
2018-02-22T01:51:52.168Z,11.55
2018-02-22T01:54:21.492Z,11.63
2018-02-22T01:56:50.043Z,11.69
2018-02-22T01:59:18.892Z,11.48
2018-02-22T02:01:47.441Z,11.47
2018-02-22T02:04:15.984Z,11.71
2018-02-22T02:06:44.584Z,11.69
2018-02-22T02:09:13.891Z,11.39
2018-02-22T02:11:43.202Z,11.45
2018-02-22T02:14:12.038Z,11.44
2018-02-22T02:16:40.592Z,11.71
2018-02-22T02:19:09.141Z,11.86
2018-02-22T02:21:38.525Z,11.59
2018-02-22T02:24:07.082Z,11.64
2018-02-22T02:26:35.626Z,11.81
2018-02-22T02:29:04.229Z,11.76
2018-02-22T02:31:32.818Z,11.81
2018-02-22T02:34:01.356Z,11.78
2018-02-22T02:36:30.824Z,11.90
2018-02-22T02:39:00.129Z,12.08
2018-02-22T02:41:28.668Z,12.24
2018-02-22T02:43:57.364Z,12.54
2018-02-22T02:46:25.903Z,12.66
2018-02-22T02:48:54.471Z,12.20
2018-02-22T02:51:23.059Z,12.33
2018-02-22T02:53:51.605Z,11.92
2018-02-22T02:56:20.165Z,11.86
2018-02-22T02:58:49.087Z,11.70
2018-02-22T03:04:19.247Z,11.52
2018-02-22T03:06:56.962Z,11.55
2018-02-22T03:09:25.926Z,11.40
2018-02-22T03:11:54.469Z,11.02
2018-02-22T03:14:23.012Z,11.33
2018-02-22T03:16:51.608Z,11.56
2018-02-22T03:19:20.165Z,11.60
2018-02-22T03:21:48.704Z,11.70
2018-02-22T03:24:18.068Z,11.39
2018-02-22T03:26:46.607Z,11.68
2018-02-22T03:29:15.153Z,11.55
2018-02-22T03:31:44.514Z,11.47
2018-02-22T03:34:13.064Z,11.61
2018-02-22T03:36:41.600Z,11.24
2018-02-22T03:39:10.364Z,11.19
2018-02-22T03:41:38.909Z,10.68
2018-02-22T03:44:07.476Z,10.49
2018-02-22T03:46:37.037Z,10.53
2018-02-22T03:49:05.577Z,10.31
2018-02-22T03:51:34.885Z,10.40
2018-02-22T03:54:03.708Z,10.54
2018-02-22T03:56:32.248Z,10.57
2018-02-22T03:59:01.557Z,10.41
2018-02-22T04:01:30.368Z,10.24
2018-02-22T04:03:58.908Z,10.26
2018-02-22T04:06:28.223Z,10.36
2018-02-22T04:08:56.918Z,10.22
2018-02-22T04:11:25.460Z,10.15
2018-02-22T04:13:54.008Z,10.23
2018-02-22T04:16:22.596Z,10.38
2018-02-22T04:18:51.140Z,10.37
2018-02-22T04:21:19.708Z,10.36
2018-02-22T04:23:49.269Z,10.37
2018-02-22T04:26:17.812Z,10.58
2018-02-22T04:28:46.348Z,10.75
2018-02-22T04:31:14.939Z,10.90
2018-02-22T04:33:43.480Z,10.79
2018-02-22T04:36:12.026Z,11.27
2018-02-22T04:38:41.591Z,11.08
2018-02-22T04:41:10.181Z,11.02
2018-02-22T04:43:38.732Z,11.07
2018-02-22T04:46:07.650Z,11.42
2018-02-22T04:48:36.189Z,11.56
2018-02-22T04:51:04.729Z,11.75
2018-02-22T04:53:33.497Z,11.67
2018-02-22T04:56:02.036Z,11.50
2018-02-22T04:58:30.616Z,11.30
2018-02-22T05:00:59.971Z,11.35
2018-02-22T05:03:28.508Z,11.21
2018-02-22T05:05:57.814Z,11.64
2018-02-22T05:08:26.633Z,11.55
2018-02-22T05:10:55.184Z,11.44
2018-02-22T05:13:23.724Z,11.35
2018-02-22T05:15:52.498Z,11.36
2018-02-22T05:18:21.036Z,11.25
2018-02-22T05:20:49.576Z,11.36
2018-02-22T05:23:18.167Z,11.32
2018-02-22T05:25:46.708Z,11.27
2018-02-22T05:28:15.256Z,11.05
2018-02-22T05:30:44.764Z,11.03
2018-02-22T05:33:14.096Z,11.06
2018-02-22T05:35:42.633Z,10.91
2018-02-22T05:38:11.472Z,11.14
2018-02-22T05:40:40.021Z,11.10
2018-02-22T05:43:09.337Z,10.87
2018-02-22T05:45:37.953Z,10.95
2018-02-22T05:48:06.501Z,11.02
2018-02-22T05:50:35.048Z,11.00
2018-02-22T05:53:04.009Z,11.16
2018-02-22T05:55:32.552Z,11.25
2018-02-22T05:58:01.103Z,11.47
2018-02-22T06:00:29.696Z,11.41
2018-02-22T06:02:59.012Z,11.32
2018-02-22T06:05:28.324Z,11.27
2018-02-22T06:07:56.937Z,11.35
2018-02-22T06:10:25.481Z,11.15
2018-02-22T06:12:54.793Z,11.22
2018-02-22T06:15:23.608Z,10.65
2018-02-22T06:17:52.145Z,10.85
2018-02-22T06:20:21.452Z,10.92
2018-02-22T06:22:51.005Z,10.99
2018-02-22T06:25:19.552Z,10.74
2018-02-22T06:27:48.097Z,10.85
2018-02-22T06:30:17.063Z,10.94
2018-02-22T06:32:45.628Z,10.69
2018-02-22T06:35:14.177Z,10.55
2018-02-22T06:37:43.541Z,10.57
2018-02-22T06:40:12.089Z,10.69
2018-02-22T06:42:40.633Z,10.37
2018-02-22T06:45:10.090Z,10.82
2018-02-22T06:47:38.631Z,10.84
2018-02-22T06:50:07.941Z,10.83
2018-02-22T06:52:36.525Z,10.50
2018-02-22T06:55:05.839Z,10.58
2018-02-22T06:57:34.385Z,10.44
2018-02-22T07:00:03.900Z,10.75
2018-02-22T07:02:33.225Z,10.73
2018-02-22T07:05:01.848Z,11.39
2018-02-22T07:07:30.441Z,11.44
2018-02-22T07:09:58.996Z,11.34
2018-02-22T07:12:27.545Z,11.13
2018-02-22T07:14:57.095Z,11.21
2018-02-22T07:17:25.645Z,11.47
2018-02-22T07:19:54.189Z,10.54
2018-02-22T07:22:22.797Z,11.05
2018-02-22T07:24:51.344Z,11.38
2018-02-22T07:27:19.954Z,11.20
2018-02-22T07:29:49.321Z,11.11
2018-02-22T07:32:17.870Z,11.22
2018-02-22T07:34:46.417Z,11.66
2018-02-22T07:37:15.785Z,11.78
2018-02-22T07:39:44.337Z,11.72
2018-02-22T07:42:12.904Z,11.35
2018-02-22T07:44:41.732Z,11.45
2018-02-22T07:47:10.280Z,11.84
2018-02-22T07:49:38.833Z,11.95
2018-02-22T07:52:08.207Z,11.99
2018-02-22T07:54:36.752Z,11.70
2018-02-22T07:57:05.303Z,11.65
2018-02-22T07:59:34.981Z,11.52
2018-02-22T08:02:03.528Z,11.51
2018-02-22T08:04:32.087Z,11.57
2018-02-22T08:07:01.447Z,11.47
2018-02-22T08:09:29.993Z,11.66
2018-02-22T08:11:58.573Z,11.66
2018-02-22T08:14:27.267Z,11.77
2018-02-22T08:16:55.808Z,11.46
2018-02-22T08:19:24.368Z,11.18
2018-02-22T08:21:52.971Z,11.60
2018-02-22T08:24:21.537Z,11.92
2018-02-22T08:26:50.848Z,11.42
2018-02-22T08:29:20.116Z,11.77
2018-02-22T08:31:48.664Z,12.09
2018-02-22T08:34:17.977Z,11.98
2018-02-22T08:36:46.902Z,12.05
2018-02-22T08:39:16.489Z,12.13
2018-02-22T08:41:45.026Z,12.11
2018-02-22T08:44:14.393Z,12.28
2018-02-22T08:46:42.935Z,11.90
2018-02-22T08:49:11.484Z,12.38
2018-02-22T08:51:40.085Z,12.49
2018-02-22T08:54:09.400Z,12.46
2018-02-22T08:56:37.969Z,12.49
2018-02-22T08:59:07.340Z,12.37
2018-02-22T09:01:36.656Z,12.40
2018-02-22T09:04:05.220Z,12.25
2018-02-22T09:06:33.817Z,12.07
2018-02-22T09:09:02.361Z,12.53
2018-02-22T09:11:30.910Z,12.28
2018-02-22T09:14:00.416Z,12.09
2018-02-22T09:16:29.729Z,12.15
2018-02-22T09:18:58.272Z,12.05
2018-02-22T09:21:26.866Z,12.42
2018-02-22T09:23:55.414Z,12.64
2018-02-22T09:26:23.961Z,12.50
2018-02-22T09:28:52.548Z,12.48
2018-02-22T09:31:21.097Z,12.44
2018-02-22T09:33:49.647Z,12.88
2018-02-22T09:36:18.640Z,12.76
2018-02-22T09:38:47.192Z,12.63
2018-02-22T09:41:15.741Z,12.49
2018-02-22T09:43:44.343Z,12.68
2018-02-22T09:46:12.897Z,12.72
2018-02-22T09:48:41.469Z,12.35
2018-02-22T09:51:11.025Z,12.63
2018-02-22T09:53:39.573Z,12.58
2018-02-22T09:56:08.118Z,12.50
2018-02-22T09:58:36.857Z,11.90
2018-02-22T10:01:05.401Z,11.74
2018-02-22T10:03:34.722Z,12.52
2018-02-22T10:06:03.472Z,12.84
2018-02-22T10:08:32.028Z,12.51
2018-02-22T10:11:00.588Z,12.88
2018-02-22T10:13:29.401Z,12.28
2018-02-22T10:15:57.950Z,12.34
2018-02-22T10:18:26.512Z,11.93
2018-02-22T10:20:55.888Z,11.99
2018-02-22T10:23:24.444Z,12.48
2018-02-22T10:25:53.033Z,12.29
2018-02-22T10:28:21.777Z,12.25
2018-02-22T10:30:51.092Z,11.73
2018-02-22T10:33:19.640Z,11.62
2018-02-22T10:35:49.011Z,11.86
2018-02-22T10:38:17.564Z,11.46
2018-02-22T10:40:46.133Z,11.30
2018-02-22T10:43:14.938Z,11.57
2018-02-22T10:45:43.493Z,11.37
2018-02-22T10:48:12.040Z,10.73
2018-02-22T10:50:41.412Z,11.09
2018-02-22T10:53:09.952Z,11.32
2018-02-22T10:55:38.513Z,10.99
2018-02-22T10:58:08.073Z,11.04
2018-02-22T11:00:42.091Z,11.17
2018-02-22T11:03:10.972Z,11.03
2018-02-22T11:05:39.520Z,10.54
2018-02-22T11:08:08.064Z,10.24
2018-02-22T11:10:36.941Z,10.36
2018-02-22T11:13:05.488Z,10.55
2018-02-22T11:15:34.032Z,10.93
2018-02-22T11:18:02.780Z,10.93
2018-02-22T11:20:31.328Z,10.80
2018-02-22T11:22:59.876Z,11.15
2018-02-22T11:25:28.485Z,10.73
2018-02-22T11:27:57.846Z,11.09
2018-02-22T11:30:26.392Z,11.34
2018-02-22T11:32:55.002Z,10.81
2018-02-22T11:35:23.550Z,10.63
2018-02-22T11:37:52.101Z,11.22
2018-02-22T11:40:21.784Z,11.14
2018-02-22T11:42:50.333Z,10.71
2018-02-22T11:45:18.880Z,11.41
2018-02-22T11:47:48.247Z,11.50
2018-02-22T11:50:16.823Z,11.49
2018-02-22T11:52:46.153Z,11.37
2018-02-22T11:55:14.884Z,11.00
2018-02-22T11:57:43.435Z,11.15
2018-02-22T12:00:12.773Z,10.72
2018-02-22T12:02:41.465Z,10.66
2018-02-22T12:05:10.008Z,10.66
2018-02-22T12:07:39.324Z,11.23
2018-02-22T12:10:08.085Z,11.22
2018-02-22T12:12:37.410Z,10.81
2018-02-22T12:15:05.957Z,10.99
2018-02-22T12:17:34.692Z,11.06
2018-02-22T12:20:03.240Z,11.14
2018-02-22T12:22:31.797Z,10.53
2018-02-22T12:25:00.538Z,10.19
2018-02-22T12:27:29.845Z,10.48
2018-02-22T12:29:58.393Z,10.98
2018-02-22T12:32:27.097Z,11.07
2018-02-22T12:34:56.409Z,10.79
2018-02-22T12:37:24.961Z,10.73
2018-02-22T12:39:53.924Z,10.84
2018-02-22T12:42:22.479Z,10.74
2018-02-22T12:44:52.744Z,10.78
2018-02-22T12:47:21.343Z,10.68
2018-02-22T12:49:49.904Z,10.94
2018-02-22T12:52:18.460Z,10.71
2018-02-22T12:54:47.376Z,10.45
2018-02-22T12:57:15.929Z,10.79
2018-02-22T12:59:44.484Z,10.71
2018-02-22T13:02:13.841Z,11.07
2018-02-22T13:04:42.395Z,10.98
2018-02-22T13:07:10.960Z,10.37
2018-02-22T13:09:39.802Z,10.76
2018-02-22T13:12:08.348Z,11.18
2018-02-22T13:14:36.913Z,10.95
2018-02-22T13:17:05.669Z,10.95
2018-02-22T13:19:34.225Z,10.59
2018-02-22T13:22:02.776Z,10.62
2018-02-22T13:24:31.376Z,10.58
2018-02-22T13:26:59.926Z,10.82
2018-02-22T13:29:29.242Z,10.87
2018-02-22T13:31:58.064Z,10.69
2018-02-22T13:34:35.852Z,10.81
2018-02-22T13:40:27.349Z,10.59
2018-02-22T13:42:57.121Z,10.51
2018-02-22T13:45:33.270Z,10.32
2018-02-22T13:48:02.172Z,10.40
2018-02-22T13:50:48.440Z,10.64
2018-02-22T13:53:17.128Z,10.71
2018-02-22T13:55:45.688Z,10.44
2018-02-22T13:58:15.009Z,10.43
2018-02-22T14:01:01.281Z,10.59
2018-02-22T14:03:30.599Z,10.44
2018-02-22T14:05:59.419Z,10.87
2018-02-22T14:08:46.574Z,10.62
2018-02-22T14:11:15.905Z,10.58
2018-02-22T14:13:44.456Z,10.70
2018-02-22T14:16:13.060Z,10.73
2018-02-22T14:18:42.422Z,10.53
2018-02-22T14:21:10.973Z,10.79
2018-02-22T14:23:39.685Z,10.70
2018-02-22T14:26:08.252Z,10.93
2018-02-22T14:28:37.357Z,10.99
2018-02-22T14:31:05.962Z,11.19
2018-02-22T14:33:34.529Z,11.38
2018-02-22T14:36:03.415Z,11.36
2018-02-22T14:38:32.064Z,10.99
2018-02-22T14:41:00.626Z,11.34
2018-02-22T14:43:29.945Z,11.13
2018-02-22T14:45:58.647Z,11.06
2018-02-22T14:48:27.210Z,11.32
2018-02-22T14:50:56.537Z,10.74
2018-02-22T14:53:25.346Z,10.49
2018-02-22T14:55:54.297Z,10.69
2018-02-22T14:58:22.847Z,11.07
2018-02-22T15:00:56.864Z,11.32
2018-02-22T15:03:25.417Z,11.02
2018-02-22T15:05:54.006Z,10.96
2018-02-22T15:08:22.707Z,10.73
2018-02-22T15:10:52.032Z,11.04
2018-02-22T15:13:21.359Z,11.07
2018-02-22T15:15:49.953Z,10.79
2018-02-22T15:18:18.505Z,11.02
2018-02-22T15:20:48.224Z,10.59
2018-02-22T15:23:17.868Z,10.76
2018-02-22T15:25:46.459Z,11.14
2018-02-22T15:28:15.017Z,11.01
2018-02-22T15:30:43.690Z,11.00
2018-02-22T15:33:12.248Z,11.30
2018-02-22T15:35:41.575Z,10.80
2018-02-22T15:38:10.409Z,10.69
2018-02-22T15:40:38.972Z,11.13
2018-02-22T15:43:07.563Z,11.17
2018-02-22T15:45:36.175Z,11.14
2018-02-22T15:48:04.751Z,11.01
2018-02-22T15:50:35.008Z,10.89
2018-02-22T15:53:03.621Z,11.31
2018-02-22T15:55:32.252Z,11.60
2018-02-22T15:58:02.308Z,11.72
2018-02-22T16:00:31.325Z,11.78
2018-02-22T16:02:59.876Z,11.58
2018-02-22T16:05:28.432Z,12.08
2018-02-22T16:07:57.900Z,11.92
2018-02-22T16:10:26.456Z,12.02
2018-02-22T16:12:55.018Z,11.78
2018-02-22T16:15:24.684Z,11.66
2018-02-22T16:17:53.245Z,11.50
2018-02-22T16:20:21.881Z,11.86
2018-02-22T16:22:52.374Z,12.02
2018-02-22T16:25:21.729Z,11.88
2018-02-22T16:27:50.293Z,12.42
2018-02-22T16:30:19.869Z,12.24
2018-02-22T16:32:48.429Z,12.55
2018-02-22T16:35:16.993Z,12.60
2018-02-22T16:37:45.750Z,12.76
2018-02-22T16:40:15.081Z,12.69
2018-02-22T16:42:44.089Z,12.47
2018-02-22T16:45:12.998Z,12.70
2018-02-22T16:47:41.554Z,12.48
2018-02-22T16:50:10.121Z,12.24
2018-02-22T16:52:38.739Z,12.39
2018-02-22T16:55:07.309Z,12.26
2018-02-22T16:57:35.872Z,12.21
2018-02-22T17:00:04.920Z,12.55
2018-02-22T17:02:33.510Z,12.44
2018-02-22T17:05:02.087Z,12.78
2018-02-22T17:07:30.879Z,11.67
2018-02-22T17:09:59.448Z,11.92
2018-02-22T17:12:28.060Z,12.41
2018-02-22T17:14:57.675Z,12.58
2018-02-22T17:17:44.869Z,12.79
2018-02-22T17:20:13.497Z,12.43
2018-02-22T17:22:42.074Z,12.54
2018-02-22T17:25:10.640Z,12.19
2018-02-22T17:27:44.812Z,12.20
2018-02-22T17:30:19.616Z,12.33
2018-02-22T17:32:48.227Z,12.39
2018-02-22T17:35:22.458Z,12.09
2018-02-22T17:37:57.656Z,12.16
2018-02-22T17:40:31.831Z,12.02
2018-02-22T17:43:00.469Z,11.89
2018-02-22T17:45:29.065Z,11.99
2018-02-22T17:47:58.437Z,12.24
2018-02-22T17:50:28.045Z,11.62
2018-02-22T17:52:56.936Z,11.80
2018-02-22T17:55:25.521Z,11.66
2018-02-22T17:57:54.308Z,11.85
2018-02-22T18:00:22.911Z,11.31
2018-02-22T18:02:51.526Z,11.58
2018-02-22T18:05:20.273Z,11.92
2018-02-22T18:07:49.588Z,11.63
2018-02-22T18:10:18.189Z,11.65
2018-02-22T18:12:46.832Z,11.36
2018-02-22T18:15:16.670Z,11.14
2018-02-22T18:17:45.253Z,11.09
2018-02-22T18:20:15.017Z,11.18
2018-02-22T18:22:43.613Z,11.76
2018-02-22T18:25:13.917Z,11.76
2018-02-22T18:27:42.527Z,11.51
2018-02-22T18:30:11.865Z,11.62
2018-02-22T18:32:40.450Z,11.42
2018-02-22T18:35:09.162Z,11.39
2018-02-22T18:37:42.981Z,11.28
2018-02-22T18:40:17.094Z,11.22
2018-02-22T18:42:50.342Z,11.05
2018-02-22T18:45:19.044Z,11.35
2018-02-22T18:47:47.606Z,11.32
2018-02-22T18:50:16.164Z,11.22
2018-02-22T18:52:45.696Z,11.37
2018-02-22T18:55:15.158Z,11.25
2018-02-22T18:57:43.721Z,10.78
2018-02-22T19:00:12.322Z,10.70
2018-02-22T19:02:40.897Z,10.82
2018-02-22T19:05:09.472Z,10.72
2018-02-22T19:07:38.077Z,11.15
2018-02-22T19:10:06.692Z,10.93
2018-02-22T19:12:36.013Z,10.92
2018-02-22T19:15:04.921Z,10.91
2018-02-22T19:17:34.400Z,10.86
2018-02-22T19:20:02.954Z,10.84
2018-02-22T19:22:32.340Z,10.64
2018-02-22T19:25:00.898Z,10.83
2018-02-22T19:27:29.482Z,10.87
2018-02-22T19:29:58.482Z,11.03
2018-02-22T19:32:27.044Z,10.78
2018-02-22T19:34:55.604Z,10.67
2018-02-22T19:37:24.362Z,10.62
2018-02-22T19:39:52.941Z,10.49
2018-02-22T19:42:22.296Z,10.64
2018-02-22T19:44:51.083Z,10.47
2018-02-22T19:47:19.641Z,10.63
2018-02-22T19:49:48.600Z,10.45
2018-02-22T19:52:18.163Z,10.76
2018-02-22T19:54:46.725Z,10.76
2018-02-22T19:57:15.285Z,11.06
2018-02-22T19:59:44.089Z,11.04
2018-02-22T20:02:12.651Z,10.49
2018-02-22T20:04:42.023Z,10.48
2018-02-22T20:07:10.902Z,10.81
2018-02-22T20:09:39.479Z,11.22
2018-02-22T20:12:08.054Z,11.43
2018-02-22T20:14:37.472Z,10.91
2018-02-22T20:17:06.040Z,10.88
2018-02-22T20:19:34.623Z,11.36
2018-02-22T20:22:03.412Z,11.44
2018-02-22T20:24:31.970Z,11.30
2018-02-22T20:27:00.529Z,11.41
2018-02-22T20:29:30.003Z,11.62
2018-02-22T20:31:58.570Z,11.29
2018-02-22T20:34:27.144Z,11.51
2018-02-22T20:36:55.768Z,11.56
2018-02-22T20:39:24.340Z,11.31
2018-02-22T20:41:52.900Z,11.55
2018-02-22T20:44:21.511Z,11.64
2018-02-22T20:46:50.075Z,11.89
2018-02-22T20:49:19.044Z,12.06
2018-02-22T20:51:48.477Z,11.86
2018-02-22T20:54:17.054Z,11.92
2018-02-22T20:56:45.637Z,11.71
2018-02-22T20:59:14.413Z,11.51
2018-02-22T21:01:42.968Z,11.33
2018-02-22T21:04:11.550Z,11.37
2018-02-22T21:06:40.153Z,11.07
2018-02-22T21:09:08.714Z,11.19
2018-02-22T21:11:37.277Z,11.28
2018-02-22T21:14:06.645Z,10.90
2018-02-22T21:16:35.204Z,10.92
2018-02-22T21:19:03.785Z,11.11
2018-02-22T21:21:32.397Z,11.37
2018-02-22T21:24:00.966Z,11.14
2018-02-22T21:26:29.525Z,11.43
2018-02-22T21:28:58.337Z,11.63
2018-02-22T21:31:26.897Z,11.70
2018-02-22T21:33:55.442Z,11.37
2018-02-22T21:36:24.814Z,11.13
2018-02-22T21:38:53.387Z,11.10
2018-02-22T21:41:21.986Z,11.65
2018-02-22T21:43:50.585Z,11.72
2018-02-22T21:46:19.145Z,11.64
2018-02-22T21:48:47.697Z,11.63
2018-02-22T21:51:16.306Z,11.37
2018-02-22T21:53:44.859Z,11.48
2018-02-22T21:56:13.420Z,11.37
2018-02-22T21:58:42.981Z,11.77
2018-02-22T22:01:11.536Z,11.93
2018-02-22T22:03:40.108Z,12.16
2018-02-22T22:06:08.941Z,11.91
2018-02-22T22:08:37.505Z,12.14
2018-02-22T22:11:06.060Z,12.11
2018-02-22T22:13:34.756Z,11.98
2018-02-22T22:16:03.311Z,12.18
2018-02-22T22:18:32.624Z,12.20
2018-02-22T22:21:02.281Z,12.41
2018-02-22T22:23:30.836Z,12.20
2018-02-22T22:25:59.397Z,12.13
2018-02-22T22:28:28.281Z,12.17
2018-02-22T22:30:57.598Z,12.15
2018-02-22T22:33:26.168Z,12.42
2018-02-22T22:35:55.814Z,12.45
2018-02-22T22:38:24.369Z,12.02
2018-02-22T22:40:52.925Z,12.01
2018-02-22T22:43:21.528Z,12.05
2018-02-22T22:45:50.845Z,12.14
2018-02-22T22:48:19.400Z,12.01
2018-02-22T22:50:48.781Z,11.98
2018-02-22T22:53:17.336Z,11.70
2018-02-22T22:55:45.888Z,11.81
2018-02-22T22:58:14.512Z,12.18
2018-02-22T23:00:43.060Z,12.20
2018-02-22T23:03:11.621Z,12.08
2018-02-22T23:05:40.989Z,12.12
2018-02-22T23:08:09.561Z,12.01
2018-02-22T23:10:38.112Z,11.74
2018-02-22T23:13:06.716Z,11.31
2018-02-22T23:15:35.266Z,10.99
2018-02-22T23:18:03.822Z,11.22
2018-02-22T23:20:33.194Z,11.25
2018-02-22T23:23:01.745Z,11.32
2018-02-22T23:25:30.296Z,11.06
2018-02-22T23:28:00.584Z,10.33
2018-02-22T23:30:29.138Z,10.30
2018-02-22T23:32:57.693Z,10.30
2018-02-22T23:35:27.189Z,10.34
2018-02-22T23:37:57.445Z,10.59
2018-02-22T23:40:37.016Z,10.92
2018-02-22T23:43:05.620Z,10.95
2018-02-22T23:45:34.192Z,11.14
2018-02-22T23:48:02.800Z,10.81
2018-02-22T23:50:31.429Z,10.64
2018-02-22T23:52:59.991Z,10.64
2018-02-22T23:55:28.645Z,11.16
2018-02-22T23:57:58.019Z,11.08
